Cape Haze, Florida
Current Conditions -  °F | °C
As of 11:15 PM on Friday 19 Dec 2014 (Local Time) from KVNC Reporting Station
Clear Clear  
Wind Chill: 55°   Ceiling: Unl
Heat Index: 55°   Visibility: 10mi
Dew Point: 54°   Wind: 5mph
Humidity: 94%   Direction: 70°ENE
Pressure: 30.09"   Gusts: NA
Location:  26.8889°N, 82.2745°W
Report Text: KVNC 200415Z AUTO 07004KT 10SM CLR 13/12 A3009 RMK AO2 TSNO
Loading
Personal Weather Stations






























Interactive Weather Map New forecast layout! Learn more

10-Day Weather Forecast

Advertisements
Track Severe Weather on mobile